Time;durP1;ratioP1;P1;durP2;ratioP2;P2;SDS_P1;SDS_P2;PMS_P1;PMS_P2;Temp;Humidity;BMP_temperature;BMP_pressure;BME280_temperature;BME280_humidity;BME280_pressure;Samples;Min_cycle;Max_cycle;Signal;HPM_P1;HPM_P2
2024/01/30 00:00:04;;;;;;;25.35;10.82;;;;;;;2.83;89.51;101384.00;5034961;28;20137;-82
2024/01/30 00:02:32;;;;;;;18.27;10.57;;;;;;;2.82;89.38;101384.91;5039408;28;20052;-83
2024/01/30 00:04:58;;;;;;;22.65;9.57;;;;;;;2.78;89.49;101385.91;5021407;28;20045;-83
2024/01/30 00:07:25;;;;;;;17.15;9.52;;;;;;;2.75;89.75;101377.28;5067991;28;20132;-82
2024/01/30 00:09:52;;;;;;;22.90;11.05;;;;;;;2.76;89.64;101379.84;5037294;28;20045;-82
2024/01/30 00:12:19;;;;;;;19.63;11.27;;;;;;;2.76;89.76;101379.00;5022900;28;20120;-83
2024/01/30 00:14:46;;;;;;;19.55;10.77;;;;;;;2.75;89.52;101374.66;5023412;28;20124;-82
2024/01/30 00:17:13;;;;;;;25.00;10.98;;;;;;;2.71;89.78;101380.91;5035726;28;20041;-82
2024/01/30 00:19:39;;;;;;;20.55;11.45;;;;;;;2.73;89.58;101385.19;5017757;28;20052;-83
2024/01/30 00:22:07;;;;;;;25.60;11.93;;;;;;;2.71;89.98;101387.00;5054164;28;20132;-82
2024/01/30 00:24:34;;;;;;;23.77;11.38;;;;;;;2.68;90.14;101381.84;5040084;28;20052;-83
2024/01/30 00:27:01;;;;;;;28.00;12.18;;;;;;;2.71;89.84;101387.00;5018917;28;20081;-83
2024/01/30 00:29:30;;;;;;;24.63;12.13;;;;;;;2.67;90.32;101389.75;5036724;28;20038;-83
2024/01/30 00:31:57;;;;;;;24.73;13.05;;;;;;;2.70;90.25;101392.31;5009039;28;20479;-83
2024/01/30 00:34:24;;;;;;;26.88;11.65;;;;;;;2.75;90.19;101390.41;5023535;28;20040;-83
2024/01/30 00:36:51;;;;;;;19.90;11.35;;;;;;;2.74;90.08;101397.38;5062516;28;20045;-83
2024/01/30 00:39:19;;;;;;;19.63;10.88;;;;;;;2.74;89.84;101394.78;5051638;28;20118;-82
2024/01/30 00:41:46;;;;;;;19.48;9.90;;;;;;;2.72;89.96;101398.34;5051305;28;20049;-82
2024/01/30 00:44:13;;;;;;;19.65;9.48;;;;;;;2.75;89.44;101398.28;5033204;28;20503;-83
2024/01/30 00:46:39;;;;;;;15.43;9.07;;;;;;;2.68;89.74;101396.75;4990315;28;20055;-83
2024/01/30 00:49:06;;;;;;;24.42;9.82;;;;;;;2.66;89.94;101402.03;5064847;28;20095;-83
2024/01/30 00:51:33;;;;;;;18.08;8.88;;;;;;;2.64;90.08;101395.97;5033735;28;20516;-83
2024/01/30 00:54:00;;;;;;;19.25;9.32;;;;;;;2.59;89.99;101397.88;5023709;28;20148;-83
2024/01/30 00:56:27;;;;;;;16.45;8.60;;;;;;;2.58;89.54;101390.91;5040431;28;20049;-83
2024/01/30 00:58:54;;;;;;;19.95;8.70;;;;;;;2.58;89.60;101394.38;5007062;28;20130;-82
2024/01/30 01:01:20;;;;;;;18.88;9.93;;;;;;;2.58;89.31;101399.63;5001125;28;20057;-83
2024/01/30 01:03:48;;;;;;;15.45;8.75;;;;;;;2.56;89.53;101390.94;5019065;28;20053;-84
2024/01/30 01:06:15;;;;;;;13.73;8.82;;;;;;;2.56;89.07;101401.44;5031655;28;20037;-83
2024/01/30 01:08:42;;;;;;;18.00;8.48;;;;;;;2.55;89.06;101401.50;5029912;28;20045;-83
2024/01/30 01:11:09;;;;;;;17.10;9.50;;;;;;;2.56;89.15;101398.81;5034370;28;20362;-83
2024/01/30 01:13:36;;;;;;;17.83;9.25;;;;;;;2.56;89.39;101404.06;5044112;28;20045;-83
2024/01/30 01:16:03;;;;;;;18.13;8.93;;;;;;;2.52;89.30;101398.94;5022570;28;20111;-83
2024/01/30 01:18:30;;;;;;;15.45;9.23;;;;;;;2.55;89.28;101396.25;5022979;28;20073;-83
2024/01/30 01:20:57;;;;;;;17.95;10.18;;;;;;;2.52;89.22;101397.22;5004813;28;20049;-83
2024/01/30 01:23:24;;;;;;;17.02;9.55;;;;;;;2.51;89.32;101390.22;5047570;28;20714;-83
2024/01/30 01:25:51;;;;;;;19.85;9.90;;;;;;;2.54;89.41;101399.75;5037395;28;20137;-83
2024/01/30 01:28:17;;;;;;;18.02;9.23;;;;;;;2.50;89.46;101393.78;5022525;28;20052;-83
2024/01/30 01:30:44;;;;;;;20.85;9.27;;;;;;;2.55;89.42;101397.09;5003489;28;20037;-83
2024/01/30 01:33:13;;;;;;;20.02;9.35;;;;;;;2.49;89.40;101399.91;5023549;28;20033;-83
2024/01/30 01:35:41;;;;;;;17.85;9.45;;;;;;;2.44;89.15;101393.94;5032096;28;20547;-83
2024/01/30 01:38:08;;;;;;;17.77;9.10;;;;;;;2.45;89.79;101390.44;5039734;28;20037;-83
2024/01/30 01:40:35;;;;;;;17.17;9.32;;;;;;;2.40;89.57;101392.31;5017533;28;20071;-84
2024/01/30 01:43:05;;;;;;;20.15;8.93;;;;;;;2.39;89.41;101396.72;5020721;28;20038;-83
2024/01/30 01:45:31;;;;;;;18.45;9.43;;;;;;;2.42;89.60;101394.88;5022520;28;20129;-82
2024/01/30 01:47:58;;;;;;;17.27;9.18;;;;;;;2.41;89.84;101393.19;5037576;28;20048;-83
2024/01/30 01:50:26;;;;;;;16.05;8.40;;;;;;;2.43;89.60;101392.22;5043566;28;20045;-83
2024/01/30 01:52:54;;;;;;;16.20;8.38;;;;;;;2.43;89.58;101394.00;5023571;28;20050;-83
2024/01/30 01:55:26;;;;;;;16.23;7.93;;;;;;;2.44;89.86;101391.31;5030289;28;20127;-83
2024/01/30 01:57:53;;;;;;;14.70;7.30;;;;;;;2.42;89.92;101395.75;5021893;28;20471;-83
2024/01/30 02:00:20;;;;;;;13.18;7.80;;;;;;;2.46;89.99;101391.28;5020396;28;21102;-83
2024/01/30 02:02:47;;;;;;;15.52;8.98;;;;;;;2.42;89.96;101389.63;5053877;28;20037;-83
2024/01/30 02:05:15;;;;;;;12.50;7.18;;;;;;;2.43;89.93;101388.75;5063304;28;20048;-83
2024/01/30 02:07:42;;;;;;;15.43;8.52;;;;;;;2.41;89.89;101385.31;5019394;28;20045;-83
2024/01/30 02:10:09;;;;;;;14.90;8.38;;;;;;;2.42;89.72;101387.00;5036195;28;20049;-83
2024/01/30 02:12:36;;;;;;;13.90;8.23;;;;;;;2.34;90.01;101388.13;5045885;28;20241;-83
2024/01/30 02:15:04;;;;;;;16.42;8.48;;;;;;;2.26;90.12;101392.72;5030774;28;20065;-84
2024/01/30 02:17:31;;;;;;;13.30;8.02;;;;;;;2.33;89.57;101390.78;5023223;28;20434;-84
2024/01/30 02:19:59;;;;;;;12.85;7.50;;;;;;;2.27;89.91;101391.81;5034645;28;20822;-83
2024/01/30 02:22:26;;;;;;;14.50;7.90;;;;;;;2.25;90.35;101387.53;5028200;28;20049;-83
2024/01/30 02:24:53;;;;;;;15.32;8.60;;;;;;;2.21;90.26;101391.13;5031227;28;20060;-83
2024/01/30 02:27:20;;;;;;;18.33;8.35;;;;;;;2.16;90.06;101393.88;5016429;28;20103;-83
2024/01/30 02:29:47;;;;;;;15.80;8.60;;;;;;;2.15;90.43;101397.41;5032530;28;20038;-83
2024/01/30 02:32:14;;;;;;;14.25;7.95;;;;;;;2.13;89.75;101393.97;5048678;28;20052;-84
2024/01/30 02:34:40;;;;;;;13.60;8.38;;;;;;;2.06;89.78;101397.66;5024649;28;20038;-84
2024/01/30 02:37:07;;;;;;;13.88;8.77;;;;;;;2.02;89.93;101396.91;5051882;28;20556;-84
2024/01/30 02:39:34;;;;;;;16.38;8.05;;;;;;;2.02;89.80;101398.66;5012034;28;20052;-84
2024/01/30 02:42:01;;;;;;;13.75;8.30;;;;;;;2.04;89.76;101402.97;5023791;28;20099;-82
2024/01/30 02:44:28;;;;;;;16.70;8.23;;;;;;;2.05;89.94;101404.66;5030008;28;20079;-83
2024/01/30 02:46:55;;;;;;;13.80;7.88;;;;;;;2.04;90.22;101400.34;5050789;28;20404;-83
2024/01/30 02:49:22;;;;;;;15.15;8.38;;;;;;;2.07;90.23;101402.88;5018324;28;20987;-84
2024/01/30 02:51:49;;;;;;;14.45;8.32;;;;;;;2.01;89.80;101400.44;5048207;28;20119;-84
2024/01/30 02:54:16;;;;;;;13.20;8.43;;;;;;;2.01;89.92;101403.06;5034378;28;20120;-83
2024/01/30 02:56:42;;;;;;;17.85;8.70;;;;;;;2.01;89.98;101399.56;5018356;28;20120;-84
2024/01/30 02:59:09;;;;;;;20.52;9.25;;;;;;;2.01;90.16;101394.31;5034019;28;20496;-84
2024/01/30 03:01:44;;;;;;;14.52;8.35;;;;;;;1.94;90.03;101394.50;5032082;28;20049;-84
2024/01/30 03:04:11;;;;;;;13.05;7.65;;;;;;;2.03;90.21;101393.38;5052858;28;20057;-84
2024/01/30 03:06:38;;;;;;;17.70;8.07;;;;;;;1.94;90.84;101391.88;5047635;28;20046;-83
2024/01/30 03:09:05;;;;;;;14.07;7.88;;;;;;;2.01;90.73;101386.44;5014946;28;20567;-83
2024/01/30 03:11:32;;;;;;;14.80;7.28;;;;;;;2.10;90.86;101388.81;5012230;28;20042;-84
2024/01/30 03:13:58;;;;;;;11.50;7.63;;;;;;;2.16;90.72;101383.41;5048962;28;20447;-83
2024/01/30 03:16:25;;;;;;;13.32;7.63;;;;;;;2.11;90.61;101391.41;5027206;28;20049;-84
2024/01/30 03:18:52;;;;;;;15.77;7.57;;;;;;;2.17;90.39;101380.75;5034539;28;20045;-83
2024/01/30 03:21:19;;;;;;;12.30;6.93;;;;;;;2.15;90.52;101389.56;5040802;28;20096;-83
2024/01/30 03:23:46;;;;;;;12.20;6.70;;;;;;;2.14;90.51;101395.72;5022865;28;20045;-83
2024/01/30 03:26:14;;;;;;;11.55;7.03;;;;;;;2.12;90.25;101393.13;5032198;28;20499;-83
2024/01/30 03:28:41;;;;;;;11.75;6.65;;;;;;;2.04;90.47;101389.88;5029410;28;20033;-83
2024/01/30 03:31:08;;;;;;;14.15;8.05;;;;;;;2.05;90.72;101395.97;5017420;28;20542;-83
2024/01/30 03:33:36;;;;;;;15.23;7.10;;;;;;;2.06;90.33;101397.66;5049680;28;20128;-83
2024/01/30 03:36:04;;;;;;;12.70;6.97;;;;;;;2.03;90.45;101393.38;5030031;28;20042;-83
2024/01/30 03:38:32;;;;;;;13.55;7.32;;;;;;;2.08;90.10;101399.34;5057043;28;20046;-84
2024/01/30 03:40:59;;;;;;;11.55;7.20;;;;;;;2.13;90.24;101393.97;5008781;28;20657;-83
2024/01/30 03:43:26;;;;;;;17.13;7.45;;;;;;;2.13;90.09;101397.44;5023771;28;20068;-84
2024/01/30 03:45:53;;;;;;;11.85;6.85;;;;;;;2.15;89.90;101400.03;5012121;28;20833;-83
2024/01/30 03:48:21;;;;;;;13.05;7.15;;;;;;;2.12;90.13;101400.97;5021885;28;20045;-83
2024/01/30 03:50:47;;;;;;;12.45;6.57;;;;;;;2.12;90.08;101400.13;5066280;28;20662;-83
2024/01/30 03:53:14;;;;;;;14.95;6.85;;;;;;;2.09;90.30;101402.84;5023997;28;20042;-83
2024/01/30 03:55:41;;;;;;;13.55;7.38;;;;;;;2.07;90.12;101399.41;5065715;28;20056;-84
2024/01/30 03:58:08;;;;;;;11.27;7.15;;;;;;;2.03;90.21;101392.50;5048920;28;20049;-84
2024/01/30 04:00:35;;;;;;;13.75;7.70;;;;;;;2.05;89.91;101391.56;5020661;28;20056;-83
2024/01/30 04:03:02;;;;;;;12.70;7.40;;;;;;;2.00;89.93;101395.22;5036872;28;20045;-84
2024/01/30 04:05:29;;;;;;;11.00;6.32;;;;;;;1.97;89.82;101390.94;5039166;28;20037;-83
2024/01/30 04:07:56;;;;;;;17.70;6.78;;;;;;;1.97;90.02;101395.31;5006176;28;20048;-83
2024/01/30 04:10:24;;;;;;;15.07;7.32;;;;;;;1.96;90.35;101397.09;5018565;28;20456;-83
2024/01/30 04:12:54;;;;;;;16.80;7.65;;;;;;;1.95;90.60;101398.81;4992763;28;20094;-83
2024/01/30 04:15:21;;;;;;;15.23;7.80;;;;;;;1.93;90.59;101395.41;5054512;28;20049;-83
2024/01/30 04:17:48;;;;;;;18.10;8.90;;;;;;;1.96;90.95;101402.31;5051325;28;20124;-83
2024/01/30 04:20:16;;;;;;;17.52;8.30;;;;;;;1.94;90.80;101397.13;5009809;28;20098;-84
2024/01/30 04:22:46;;;;;;;19.73;7.93;;;;;;;1.95;90.36;101411.06;5022724;28;20131;-83
2024/01/30 04:25:13;;;;;;;18.77;7.55;;;;;;;1.90;90.91;101400.72;5008480;28;20132;-83
2024/01/30 04:27:40;;;;;;;12.27;7.65;;;;;;;1.88;90.59;101402.53;5030985;28;20047;-83
2024/01/30 04:30:07;;;;;;;17.27;7.85;;;;;;;1.85;90.58;101402.59;5030891;28;20045;-84
2024/01/30 04:32:34;;;;;;;12.40;7.53;;;;;;;1.85;90.62;101399.13;5043298;28;20045;-83
2024/01/30 04:35:01;;;;;;;12.48;7.43;;;;;;;1.78;90.91;101392.31;5019991;28;20048;-83
2024/01/30 04:37:30;;;;;;;12.15;6.57;;;;;;;1.71;90.96;101400.34;5024637;28;20460;-84
2024/01/30 04:39:57;;;;;;;16.73;7.47;;;;;;;1.80;90.97;101396.63;4983371;28;20560;-83
2024/01/30 04:42:24;;;;;;;12.63;7.50;;;;;;;1.88;90.77;101407.78;5021470;28;20056;-83
2024/01/30 04:44:51;;;;;;;14.25;7.93;;;;;;;1.83;90.59;101408.78;5006364;28;20520;-83
2024/01/30 04:47:17;;;;;;;14.90;7.90;;;;;;;1.79;90.48;101402.78;5039578;28;20977;-83
2024/01/30 04:49:44;;;;;;;12.57;7.18;;;;;;;1.75;90.44;101401.13;5007337;28;20056;-84
2024/01/30 04:52:11;;;;;;;12.68;7.07;;;;;;;1.74;90.04;101400.28;5050630;28;21133;-84
2024/01/30 04:54:38;;;;;;;13.48;7.90;;;;;;;1.73;90.18;101402.91;5049546;28;20129;-84
2024/01/30 04:57:09;;;;;;;13.23;6.97;;;;;;;1.71;89.98;101405.59;5041146;28;20454;-83
2024/01/30 04:59:36;;;;;;;15.63;7.63;;;;;;;1.69;89.72;101403.91;5025267;28;20106;-83
2024/01/30 05:02:03;;;;;;;11.02;6.70;;;;;;;1.70;89.44;101400.38;5018666;28;20037;-84
2024/01/30 05:04:30;;;;;;;11.18;7.10;;;;;;;1.67;89.75;101405.72;5023641;28;20583;-84
2024/01/30 05:06:57;;;;;;;11.82;6.82;;;;;;;1.66;90.02;101404.00;5002992;28;20762;-83
2024/01/30 05:09:23;;;;;;;13.48;6.55;;;;;;;1.66;89.87;101406.63;5006682;28;20053;-85
2024/01/30 05:11:50;;;;;;;12.25;6.63;;;;;;;1.71;90.24;101413.44;5037229;28;20038;-83
2024/01/30 05:14:17;;;;;;;26.25;13.68;;;;;;;1.67;90.06;101411.81;5004556;28;20467;-84
2024/01/30 05:16:46;;;;;;;20.60;11.68;;;;;;;1.68;90.29;101410.03;5026956;28;20130;-84
2024/01/30 05:19:14;;;;;;;16.40;9.13;;;;;;;1.71;90.08;101412.59;5022354;28;20124;-83
2024/01/30 05:21:41;;;;;;;16.42;7.68;;;;;;;1.67;90.27;101418.81;5015849;28;20128;-83
2024/01/30 05:24:09;;;;;;;14.50;8.80;;;;;;;1.66;90.31;101415.34;5029756;28;20385;-83
2024/01/30 05:26:36;;;;;;;13.43;7.68;;;;;;;1.68;90.11;101423.13;5033211;28;20523;-83
2024/01/30 05:29:03;;;;;;;15.10;7.38;;;;;;;1.71;90.09;101417.84;5013278;28;20049;-83
2024/01/30 05:31:30;;;;;;;15.52;7.82;;;;;;;1.70;90.06;101423.97;5037967;28;20046;-84
2024/01/30 05:33:57;;;;;;;12.73;6.53;;;;;;;1.67;90.43;101414.41;5023674;28;20048;-83
2024/01/30 05:36:24;;;;;;;12.88;7.45;;;;;;;1.68;90.48;101421.41;5021902;28;20060;-84
2024/01/30 05:38:51;;;;;;;11.20;6.75;;;;;;;1.69;90.64;101419.63;5033960;28;20048;-84
2024/01/30 05:41:18;;;;;;;11.85;7.18;;;;;;;1.66;90.68;101424.97;5032254;28;20052;-84
2024/01/30 05:43:44;;;;;;;12.50;7.40;;;;;;;1.71;90.83;101417.84;5018987;28;20110;-83
2024/01/30 05:46:11;;;;;;;11.52;6.57;;;;;;;1.67;90.45;101426.66;5000024;28;20103;-85
2024/01/30 05:48:38;;;;;;;14.43;7.15;;;;;;;1.67;90.01;101430.13;5020236;28;20065;-84
2024/01/30 05:51:07;;;;;;;11.05;7.07;;;;;;;1.61;89.66;101422.44;5043462;28;20045;-83
2024/01/30 05:53:34;;;;;;;12.73;7.00;;;;;;;1.64;90.07;101431.97;5031988;28;20057;-84
2024/01/30 05:56:02;;;;;;;12.20;6.65;;;;;;;1.59;90.29;101428.63;5008268;28;20498;-83
2024/01/30 05:58:29;;;;;;;17.08;7.90;;;;;;;1.60;90.04;101425.09;5051571;28;20124;-84
2024/01/30 06:00:56;;;;;;;15.85;6.78;;;;;;;1.56;90.39;101426.94;5006192;28;20167;-84
2024/01/30 06:03:22;;;;;;;13.50;7.53;;;;;;;1.61;90.43;101429.44;5035309;28;20049;-83
2024/01/30 06:05:49;;;;;;;13.25;7.13;;;;;;;1.51;90.65;101432.28;5005903;28;20083;-84
2024/01/30 06:08:17;;;;;;;13.50;7.43;;;;;;;1.45;90.92;101432.47;5015561;28;20067;-84
2024/01/30 06:10:44;;;;;;;17.85;8.25;;;;;;;1.46;90.49;101428.94;5017163;28;20060;-84
2024/01/30 06:13:11;;;;;;;11.77;7.10;;;;;;;1.48;90.60;101426.28;5058965;28;20045;-84
2024/01/30 06:15:37;;;;;;;16.05;7.70;;;;;;;1.46;90.12;101434.16;5024127;28;20052;-84
2024/01/30 06:18:04;;;;;;;14.82;6.63;;;;;;;1.42;90.32;101427.28;5008491;28;20119;-83
2024/01/30 06:20:31;;;;;;;13.57;7.43;;;;;;;1.44;89.94;101428.09;5018017;28;20111;-84
2024/01/30 06:22:58;;;;;;;16.23;7.85;;;;;;;1.44;90.43;101429.88;5015062;28;20053;-84
2024/01/30 06:25:24;;;;;;;13.73;7.97;;;;;;;1.38;90.62;101432.66;5034570;28;20033;-83
2024/01/30 06:27:52;;;;;;;13.68;7.97;;;;;;;1.42;90.56;101429.91;5034284;28;20528;-86
2024/01/30 06:30:18;;;;;;;12.10;7.80;;;;;;;1.41;90.40;101422.94;5031102;28;20065;-87
2024/01/30 06:32:45;;;;;;;12.45;7.35;;;;;;;1.31;90.50;101431.94;5031863;28;20045;-87
2024/01/30 06:35:12;;;;;;;17.50;8.02;;;;;;;1.35;89.97;101432.69;5043472;28;20111;-87
2024/01/30 06:37:39;;;;;;;16.85;8.80;;;;;;;1.37;90.05;101430.91;5036756;28;20074;-86
2024/01/30 06:40:06;;;;;;;22.77;9.13;;;;;;;1.37;90.84;101429.16;5051066;28;20122;-86
2024/01/30 06:42:33;;;;;;;19.40;9.65;;;;;;;1.40;91.34;101428.22;5050579;28;20033;-86
2024/01/30 06:45:00;;;;;;;20.08;8.35;;;;;;;1.34;90.68;101420.53;5044539;28;20938;-86
2024/01/30 06:47:27;;;;;;;14.32;8.27;;;;;;;1.32;90.74;101435.41;5021485;28;20642;-85
2024/01/30 06:49:53;;;;;;;17.63;7.80;;;;;;;1.26;90.48;101433.81;5056660;28;20037;-85
2024/01/30 06:52:20;;;;;;;16.63;8.05;;;;;;;1.34;90.59;101431.84;5051101;28;20091;-86
2024/01/30 06:54:47;;;;;;;14.52;7.85;;;;;;;1.31;90.90;101434.53;5041463;28;20037;-86
2024/01/30 06:57:14;;;;;;;17.58;8.70;;;;;;;1.30;90.49;101436.31;5018745;28;20053;-86
2024/01/30 06:59:43;;;;;;;22.00;9.10;;;;;;;1.29;91.29;101436.34;5063247;28;20045;-86
2024/01/30 07:02:11;;;;;;;16.40;8.93;;;;;;;1.23;91.88;101436.50;5052362;28;20071;-86
2024/01/30 07:04:39;;;;;;;17.85;10.18;;;;;;;1.24;92.00;101439.06;5048238;28;20111;-86
2024/01/30 07:07:12;;;;;;;26.60;11.68;;;;;;;1.30;92.67;101448.53;5035018;28;20041;-86
2024/01/30 07:09:39;;;;;;;23.45;11.73;;;;;;;1.27;93.66;101449.47;5048866;28;20045;-86
2024/01/30 07:12:06;;;;;;;21.13;11.73;;;;;;;1.28;93.88;101443.34;5026427;28;20044;-86
2024/01/30 07:14:33;;;;;;;20.52;10.45;;;;;;;1.29;93.60;101445.03;5018809;28;20059;-86
2024/01/30 07:17:00;;;;;;;31.02;12.55;;;;;;;1.29;93.12;101444.19;5036812;28;20042;-86
2024/01/30 07:19:27;;;;;;;25.45;11.75;;;;;;;1.30;92.65;101441.53;5033103;28;20410;-87
2024/01/30 07:21:54;;;;;;;29.77;13.90;;;;;;;1.24;92.78;101438.19;5021343;28;20408;-87
2024/01/30 07:24:21;;;;;;;38.08;15.60;;;;;;;1.26;92.81;101442.50;5006686;28;20504;-85
2024/01/30 07:26:47;;;;;;;47.42;17.85;;;;;;;1.25;93.19;101442.56;5019339;28;20049;-86
2024/01/30 07:29:14;;;;;;;34.65;16.60;;;;;;;1.25;93.35;101439.94;5035052;28;20135;-86
2024/01/30 07:31:41;;;;;;;49.80;21.52;;;;;;;1.36;93.05;101437.06;5048931;28;20049;-85
2024/01/30 07:34:08;;;;;;;30.02;14.52;;;;;;;1.36;93.35;101444.91;5033640;28;20045;-86
2024/01/30 07:36:35;;;;;;;29.02;13.93;;;;;;;1.40;93.62;101436.94;5026817;28;20769;-85
2024/01/30 07:39:02;;;;;;;27.23;12.55;;;;;;;1.46;93.57;101443.78;5035361;28;20084;-84
2024/01/30 07:41:29;;;;;;;25.52;10.93;;;;;;;1.42;93.81;101444.75;5026941;28;20038;-86
2024/01/30 07:43:56;;;;;;;21.75;11.90;;;;;;;1.44;93.66;101446.44;5020547;28;20051;-85
2024/01/30 07:46:23;;;;;;;18.23;11.23;;;;;;;1.45;92.90;101444.66;5037264;28;20059;-85
2024/01/30 07:48:53;;;;;;;23.80;11.48;;;;;;;1.48;92.71;101447.22;5048281;28;20041;-86
2024/01/30 07:51:21;;;;;;;21.15;11.30;;;;;;;1.45;92.89;101442.94;5039240;28;20611;-86
2024/01/30 07:53:54;;;;;;;22.33;11.13;;;;;;;1.45;92.64;101448.16;5017299;28;20499;-86
2024/01/30 07:56:24;;;;;;;30.90;11.73;;;;;;;1.52;92.91;101451.47;5033689;28;20045;-86
2024/01/30 07:58:51;;;;;;;21.52;11.82;;;;;;;1.42;93.15;101442.97;5022611;28;20049;-86
2024/01/30 08:01:18;;;;;;;19.25;11.27;;;;;;;1.51;93.07;101461.09;5020799;28;20051;-85
2024/01/30 08:03:45;;;;;;;25.27;13.05;;;;;;;1.51;92.84;101452.38;5051213;28;20046;-85
2024/01/30 08:06:12;;;;;;;27.45;13.18;;;;;;;1.50;93.36;101462.00;5050854;28;20053;-86
2024/01/30 08:08:39;;;;;;;24.60;13.55;;;;;;;1.54;93.14;101456.69;5034479;28;20552;-85
2024/01/30 08:11:05;;;;;;;26.58;12.25;;;;;;;1.51;93.58;101453.25;5035628;28;20049;-86
2024/01/30 08:13:32;;;;;;;23.73;12.93;;;;;;;1.58;93.38;101461.81;5007205;28;20044;-85
2024/01/30 08:15:59;;;;;;;27.08;12.52;;;;;;;1.52;93.80;101457.56;5047764;28;20122;-85
2024/01/30 08:18:26;;;;;;;24.83;13.68;;;;;;;1.61;93.32;101458.25;5069066;28;20033;-86
2024/01/30 08:20:53;;;;;;;26.80;12.90;;;;;;;1.59;93.66;101466.13;5038323;28;20563;-86
2024/01/30 08:23:20;;;;;;;24.25;13.40;;;;;;;1.59;93.87;101460.03;5009925;28;20060;-84
2024/01/30 08:25:46;;;;;;;25.48;13.50;;;;;;;1.66;93.68;101454.63;5036523;28;20041;-86
2024/01/30 08:28:13;;;;;;;22.58;13.30;;;;;;;1.63;94.22;101465.16;5010715;28;20069;-83
2024/01/30 08:30:42;;;;;;;26.65;12.23;;;;;;;1.70;93.91;101461.47;5050350;28;20823;-83
2024/01/30 08:33:09;;;;;;;23.02;12.50;;;;;;;1.73;93.60;101463.16;5035871;28;20052;-84
2024/01/30 08:35:36;;;;;;;25.13;12.43;;;;;;;1.71;94.03;101467.59;5036298;28;20420;-84
2024/01/30 08:38:03;;;;;;;19.98;11.15;;;;;;;1.75;93.51;101466.59;5058253;28;20060;-83
2024/01/30 08:40:30;;;;;;;22.55;12.40;;;;;;;1.75;93.87;101466.59;5027942;28;20120;-84
2024/01/30 08:42:57;;;;;;;22.17;11.57;;;;;;;1.79;93.47;101468.25;5022826;28;20663;-84
2024/01/30 08:45:24;;;;;;;22.45;12.63;;;;;;;1.84;93.00;101466.38;5010388;28;20056;-84
2024/01/30 08:47:51;;;;;;;20.45;11.60;;;;;;;1.83;92.96;101469.91;5035569;28;20045;-84
2024/01/30 08:50:18;;;;;;;25.38;12.65;;;;;;;1.79;92.89;101477.88;5016868;28;20045;-84
2024/01/30 08:52:45;;;;;;;20.15;12.45;;;;;;;1.80;92.66;101475.19;5030764;28;20076;-85
2024/01/30 08:55:13;;;;;;;24.30;12.50;;;;;;;1.85;92.46;101472.47;4992543;28;20049;-84
2024/01/30 08:57:40;;;;;;;21.77;11.73;;;;;;;1.81;92.52;101471.69;5008526;28;20056;-83
2024/01/30 09:00:09;;;;;;;24.25;12.80;;;;;;;1.85;92.78;101470.69;5021649;28;20041;-83
2024/01/30 09:02:35;;;;;;;26.33;12.68;;;;;;;1.89;92.58;101472.34;5023661;28;20101;-83
2024/01/30 09:05:02;;;;;;;23.63;13.55;;;;;;;1.94;92.19;101474.84;5008645;28;20056;-84
2024/01/30 09:07:29;;;;;;;22.38;13.48;;;;;;;1.94;92.37;101473.09;5036464;28;20053;-83
2024/01/30 09:09:56;;;;;;;27.80;13.85;;;;;;;1.96;92.38;101465.19;5032668;28;20096;-83
2024/01/30 09:12:23;;;;;;;24.58;13.85;;;;;;;1.99;92.63;101470.34;5033306;28;20460;-86
2024/01/30 09:14:50;;;;;;;32.55;14.85;;;;;;;1.94;92.73;101472.22;5036953;28;20053;-85
2024/01/30 09:17:17;;;;;;;27.10;14.77;;;;;;;2.03;92.53;101471.97;5034137;28;20041;-86
2024/01/30 09:19:44;;;;;;;26.48;14.07;;;;;;;2.04;92.77;101484.19;5041863;28;20143;-86
2024/01/30 09:22:10;;;;;;;29.63;14.77;;;;;;;2.04;92.58;101478.94;5032531;28;20046;-85
2024/01/30 09:24:37;;;;;;;29.00;14.00;;;;;;;2.08;92.60;101477.94;5069076;28;20086;-85
2024/01/30 09:27:04;;;;;;;28.70;15.48;;;;;;;2.09;92.84;101476.22;5022447;28;20126;-86
2024/01/30 09:29:34;;;;;;;27.70;14.65;;;;;;;2.14;92.58;101485.66;5061995;28;20042;-86
2024/01/30 09:32:00;;;;;;;25.67;14.13;;;;;;;2.18;92.67;101489.91;5027650;28;20491;-86
2024/01/30 09:34:27;;;;;;;30.65;15.73;;;;;;;2.20;92.95;101479.38;5022466;28;20044;-86
2024/01/30 09:36:54;;;;;;;29.42;16.25;;;;;;;2.23;93.04;101476.69;5049977;28;20132;-85
2024/01/30 09:39:21;;;;;;;33.08;17.15;;;;;;;2.27;92.96;101478.31;5031720;28;20037;-85
2024/01/30 09:42:10;;;;;;;28.10;15.77;;;;;;;2.28;93.23;101481.78;5035806;28;20102;-86
2024/01/30 09:44:38;;;;;;;28.10;15.35;;;;;;;2.33;93.18;101486.00;5035042;28;20044;-86
2024/01/30 09:47:05;;;;;;;24.85;14.27;;;;;;;2.37;92.87;101485.03;5038022;28;20040;-85
2024/01/30 09:49:34;;;;;;;24.20;14.50;;;;;;;2.40;92.90;101484.09;5022580;28;20040;-86
2024/01/30 09:52:05;;;;;;;25.92;13.45;;;;;;;2.43;93.13;101488.38;5028100;28;20045;-86
2024/01/30 09:54:32;;;;;;;24.52;13.77;;;;;;;2.47;92.75;101493.50;5062959;28;20758;-88
2024/01/30 09:57:03;;;;;;;22.60;12.90;;;;;;;2.49;92.86;101485.56;5031565;28;20160;-86
2024/01/30 09:59:29;;;;;;;26.30;13.10;;;;;;;2.50;92.67;101492.56;4986357;28;20400;-85
2024/01/30 10:01:57;;;;;;;21.90;12.85;;;;;;;2.53;92.97;101495.06;5036155;28;20515;-85
2024/01/30 10:04:24;;;;;;;22.17;12.57;;;;;;;2.52;92.72;101488.97;5015486;28;20132;-86
2024/01/30 10:06:51;;;;;;;19.58;11.82;;;;;;;2.53;92.75;101488.06;5032846;28;20045;-86
2024/01/30 10:09:19;;;;;;;20.92;12.35;;;;;;;2.55;92.83;101482.78;5028678;28;20476;-84
2024/01/30 10:11:45;;;;;;;22.75;12.63;;;;;;;2.57;92.95;101487.09;5045012;28;20057;-84
2024/01/30 10:14:12;;;;;;;24.05;12.38;;;;;;;2.59;92.88;101482.63;5045966;28;20059;-84
2024/01/30 10:16:39;;;;;;;21.65;10.93;;;;;;;2.62;92.97;101481.72;5050156;28;20049;-86
2024/01/30 10:19:06;;;;;;;25.08;12.55;;;;;;;2.65;93.10;101484.25;5046619;28;20053;-84
2024/01/30 10:21:33;;;;;;;25.67;13.30;;;;;;;2.67;93.01;101481.56;5059041;28;20052;-84
2024/01/30 10:23:59;;;;;;;23.65;12.60;;;;;;;2.69;93.09;101485.00;5016413;28;20132;-83
2024/01/30 10:26:26;;;;;;;22.67;12.73;;;;;;;2.69;93.39;101480.59;5016372;28;20045;-84
2024/01/30 10:28:53;;;;;;;17.75;11.07;;;;;;;2.71;93.35;101470.94;5032810;28;20055;-82
2024/01/30 10:31:20;;;;;;;21.00;11.27;;;;;;;2.75;93.16;101466.47;5043170;28;20046;-83
2024/01/30 10:33:47;;;;;;;18.30;11.73;;;;;;;2.78;93.45;101467.22;5034812;28;20041;-84
2024/01/30 10:36:17;;;;;;;18.85;11.70;;;;;;;2.81;93.37;101464.50;5023849;28;20146;-85
2024/01/30 10:38:50;;;;;;;22.55;12.30;;;;;;;2.86;93.67;101458.28;5061182;28;20041;-85
2024/01/30 10:41:19;;;;;;;22.27;13.10;;;;;;;2.86;93.82;101466.16;5017089;28;20870;-84
2024/01/30 10:43:52;;;;;;;27.45;13.75;;;;;;;2.86;93.95;101463.53;5018560;28;20095;-87
2024/01/30 10:46:20;;;;;;;26.00;14.48;;;;;;;2.85;93.89;101465.28;5032664;28;20061;-85
2024/01/30 10:48:57;;;;;;;23.85;13.07;;;;;;;2.83;93.85;101464.47;5029626;28;20040;-85
2024/01/30 10:51:26;;;;;;;24.33;13.85;;;;;;;2.86;94.02;101459.13;5030568;28;20543;-85
2024/01/30 10:53:55;;;;;;;25.65;14.02;;;;;;;2.87;93.93;101457.34;5024053;28;20060;-85
2024/01/30 10:56:23;;;;;;;26.35;15.10;;;;;;;2.89;93.85;101461.66;5013459;28;20136;-85
2024/01/30 10:58:52;;;;;;;25.73;14.52;;;;;;;2.89;93.74;101460.81;5028099;28;20520;-85
2024/01/30 11:01:20;;;;;;;23.95;13.82;;;;;;;2.90;93.56;101460.78;5031069;28;20045;-85
2024/01/30 11:03:47;;;;;;;23.55;11.73;;;;;;;2.93;93.70;101452.78;5030276;28;20119;-85
2024/01/30 11:06:18;;;;;;;26.58;13.75;;;;;;;2.96;93.76;101459.72;5023478;28;20049;-86
2024/01/30 11:09:00;;;;;;;26.80;13.35;;;;;;;2.93;93.91;101454.56;5023750;28;20045;-85
2024/01/30 11:11:27;;;;;;;28.73;14.10;;;;;;;2.96;94.22;101452.69;5022309;28;20048;-85
2024/01/30 11:13:54;;;;;;;26.83;14.77;;;;;;;3.00;93.87;101456.94;5030846;28;20463;-85
2024/01/30 11:16:21;;;;;;;27.83;14.80;;;;;;;3.01;94.09;101450.78;5043925;28;20053;-86
2024/01/30 11:18:54;;;;;;;24.95;13.43;;;;;;;3.03;94.01;101456.00;5065474;28;20042;-85
2024/01/30 11:21:25;;;;;;;25.67;14.57;;;;;;;3.06;93.96;101449.78;5033117;28;20049;-86